Time;durP1;ratioP1;P1;durP2;ratioP2;P2;SDS_P1;SDS_P2;PMS_P1;PMS_P2;Temp;Humidity;BMP_temperature;BMP_pressure;BME280_temperature;BME280_humidity;BME280_pressure;Samples;Min_cycle;Max_cycle;Signal;HPM_P1;HPM_P2
2022/01/02 00:01:49;;;;;;;7.70;4.23;;;;;;;;;;4900000;29;20208;-88
2022/01/02 00:04:18;;;;;;;5.40;3.33;;;;;;;;;;4899858;29;20228;-88
2022/01/02 00:06:48;;;;;;;7.73;4.00;;;;;;;;;;4899686;29;20247;-88
2022/01/02 00:09:21;;;;;;;8.00;3.37;;;;;;;;;;4899780;29;20256;-89
2022/01/02 00:11:51;;;;;;;6.60;3.37;;;;;;;;;;4899741;29;20257;-88
2022/01/02 00:14:25;;;;;;;8.87;4.43;;;;;;;;;;4899635;29;20207;-88
2022/01/02 00:16:54;;;;;;;12.10;5.63;;;;;;;;;;4899974;29;20232;-88
2022/01/02 00:19:29;;;;;;;4.47;2.40;;;;;;;;;;4899614;29;20227;-88
2022/01/02 00:22:01;;;;;;;9.33;4.80;;;;;;;;;;4892084;29;20231;-88
2022/01/02 00:24:30;;;;;;;6.57;4.87;;;;;;;;;;4899635;29;20304;-88
2022/01/02 00:27:00;;;;;;;8.23;4.57;;;;;;;;;;4892026;29;20219;-88
2022/01/02 00:29:30;;;;;;;7.83;4.33;;;;;;;;;;4899493;29;20212;-88
2022/01/02 00:32:00;;;;;;;3.33;3.03;;;;;;;;;;4899896;29;20283;-88
2022/01/02 00:34:28;;;;;;;6.67;3.27;;;;;;;;;;4899614;29;20271;-87
2022/01/02 00:36:57;;;;;;;3.67;3.33;;;;;;;;;;4899459;29;20240;-88
2022/01/02 00:39:25;;;;;;;8.33;5.97;;;;;;;;;;4899175;29;20232;-88
2022/01/02 00:41:55;;;;;;;7.67;5.23;;;;;;;;;;4899482;29;20232;-88
2022/01/02 00:44:29;;;;;;;7.87;4.33;;;;;;;;;;4899333;29;20212;-88
2022/01/02 00:47:02;;;;;;;5.47;3.40;;;;;;;;;;4899428;29;20204;-87
2022/01/02 00:49:31;;;;;;;11.83;5.63;;;;;;;;;;4899028;29;20248;-88
2022/01/02 00:52:03;;;;;;;7.80;4.53;;;;;;;;;;4899337;29;20208;-88
2022/01/02 00:54:34;;;;;;;10.33;3.83;;;;;;;;;;4899084;29;20192;-88
2022/01/02 00:57:06;;;;;;;11.37;6.17;;;;;;;;;;4909955;29;20243;-88
2022/01/02 00:59:39;;;;;;;5.73;2.70;;;;;;;;;;4918346;29;20228;-88
2022/01/02 01:02:11;;;;;;;8.47;5.27;;;;;;;;;;4918223;29;20232;-88
2022/01/02 01:04:43;;;;;;;7.47;3.57;;;;;;;;;;4917927;29;20243;-88
2022/01/02 01:07:12;;;;;;;17.77;6.73;;;;;;;;;;4918068;29;20260;-89
2022/01/02 01:09:44;;;;;;;15.57;5.80;;;;;;;;;;4917631;29;20202;-88
2022/01/02 01:12:14;;;;;;;11.37;5.07;;;;;;;;;;4918164;29;20354;-88
2022/01/02 01:14:43;;;;;;;9.73;5.80;;;;;;;;;;4917788;29;20207;-89
2022/01/02 01:17:15;;;;;;;7.87;4.90;;;;;;;;;;4917630;29;20211;-88
2022/01/02 01:19:43;;;;;;;12.70;7.60;;;;;;;;;;4917864;29;20243;-88
2022/01/02 01:22:12;;;;;;;11.13;4.67;;;;;;;;;;4918076;29;20234;-88
2022/01/02 01:24:41;;;;;;;10.63;6.90;;;;;;;;;;4918139;29;20219;-88
2022/01/02 01:27:09;;;;;;;8.80;5.77;;;;;;;;;;4917617;29;20222;-88
2022/01/02 01:29:38;;;;;;;6.00;5.13;;;;;;;;;;4917882;29;20235;-88
2022/01/02 01:32:08;;;;;;;7.20;4.63;;;;;;;;;;4917765;29;20223;-88
2022/01/02 01:34:39;;;;;;;10.70;6.13;;;;;;;;;;4917829;29;20211;-89
2022/01/02 01:37:07;;;;;;;9.03;5.90;;;;;;;;;;4917993;29;20202;-88
2022/01/02 01:39:35;;;;;;;13.47;8.70;;;;;;;;;;4917862;29;20294;-88
2022/01/02 01:42:10;;;;;;;13.27;8.07;;;;;;;;;;4917556;29;20219;-88
2022/01/02 01:44:51;;;;;;;14.50;7.10;;;;;;;;;;4894030;29;20249;-89
2022/01/02 01:47:20;;;;;;;11.10;7.17;;;;;;;;;;4898567;29;20211;-88
2022/01/02 01:49:50;;;;;;;8.50;6.03;;;;;;;;;;4898711;29;20203;-88
2022/01/02 01:52:18;;;;;;;9.03;5.90;;;;;;;;;;4905801;29;20215;-89
2022/01/02 01:54:47;;;;;;;14.10;6.60;;;;;;;;;;4917643;29;20245;-89
2022/01/02 01:57:18;;;;;;;12.53;7.00;;;;;;;;;;4917290;29;20231;-89
2022/01/02 01:59:48;;;;;;;13.40;5.77;;;;;;;;;;4917216;29;20235;-88
2022/01/02 02:02:17;;;;;;;7.13;4.43;;;;;;;;;;4917292;29;20207;-89
2022/01/02 02:04:46;;;;;;;11.07;5.60;;;;;;;;;;4917263;29;20233;-89
2022/01/02 02:07:19;;;;;;;11.20;6.67;;;;;;;;;;4917299;29;20325;-89
2022/01/02 02:10:02;;;;;;;15.53;7.07;;;;;;;;;;4917281;29;20211;-88
2022/01/02 02:12:31;;;;;;;5.90;3.37;;;;;;;;;;4917938;29;20203;-88
2022/01/02 02:15:00;;;;;;;9.77;6.00;;;;;;;;;;4917586;29;20241;-89
2022/01/02 02:17:28;;;;;;;8.03;5.10;;;;;;;;;;4913355;29;20207;-89
2022/01/02 02:19:59;;;;;;;5.83;3.80;;;;;;;;;;4898998;29;20231;-89
2022/01/02 02:22:28;;;;;;;10.47;4.77;;;;;;;;;;4901987;29;20192;-88
2022/01/02 02:24:56;;;;;;;8.30;4.93;;;;;;;;;;4901634;29;20308;-89
2022/01/02 02:27:25;;;;;;;11.90;3.77;;;;;;;;;;4901631;29;20240;-89
2022/01/02 02:29:53;;;;;;;4.80;3.27;;;;;;;;;;4901720;29;20247;-89
2022/01/02 02:32:21;;;;;;;5.60;2.97;;;;;;;;;;4901848;29;20220;-89
2022/01/02 02:34:50;;;;;;;6.50;3.33;;;;;;;;;;4901815;29;20260;-88
2022/01/02 02:37:20;;;;;;;10.73;2.57;;;;;;;;;;4901756;29;20256;-89
2022/01/02 02:39:48;;;;;;;8.43;4.70;;;;;;;;;;4901594;29;20212;-89
2022/01/02 02:42:28;;;;;;;8.73;3.90;;;;;;;;;;4901333;29;20264;-89
2022/01/02 02:48:57;;;;;;;10.13;3.40;;;;;;;;;;4901355;29;20240;-88
2022/01/02 02:50:38;;;;;;;6.97;4.13;;;;;;;;;;4831772;29;20214;-89
2022/01/02 02:53:08;;;;;;;8.80;3.63;;;;;;;;;;4901559;29;20209;-89
2022/01/02 02:55:43;;;;;;;6.73;2.60;;;;;;;;;;4901299;29;20229;-89
2022/01/02 02:58:38;;;;;;;25.33;3.10;;;;;;;;;;4901096;29;20212;-89
2022/01/02 03:01:06;;;;;;;8.63;3.83;;;;;;;;;;4900700;29;20235;-89
2022/01/02 03:03:35;;;;;;;4.60;3.00;;;;;;;;;;4901038;29;20287;-89
2022/01/02 03:06:03;;;;;;;5.80;1.70;;;;;;;;;;4901458;29;20305;-89
2022/01/02 03:08:33;;;;;;;7.90;2.30;;;;;;;;;;4900860;29;20269;-88
2022/01/02 03:11:02;;;;;;;2.73;1.43;;;;;;;;;;4901503;29;20208;-89
2022/01/02 03:13:31;;;;;;;7.53;4.53;;;;;;;;;;4901370;29;20204;-89
2022/01/02 03:15:59;;;;;;;9.30;2.13;;;;;;;;;;4893185;29;20216;-88
2022/01/02 03:18:28;;;;;;;7.43;3.33;;;;;;;;;;4900980;29;20219;-89
2022/01/02 03:20:56;;;;;;;8.83;2.47;;;;;;;;;;4901111;29;20235;-89
2022/01/02 03:23:24;;;;;;;7.33;2.67;;;;;;;;;;4900653;29;20219;-88
2022/01/02 03:25:54;;;;;;;5.93;3.20;;;;;;;;;;4901019;29;20217;-88
2022/01/02 03:28:23;;;;;;;5.30;2.13;;;;;;;;;;4900936;29;20269;-87
2022/01/02 03:30:51;;;;;;;4.40;3.10;;;;;;;;;;4900612;29;20201;-89
2022/01/02 03:33:20;;;;;;;8.57;3.47;;;;;;;;;;4899787;29;20208;-89
2022/01/02 03:35:48;;;;;;;10.43;3.83;;;;;;;;;;4900658;29;20241;-88
2022/01/02 03:38:17;;;;;;;6.87;3.23;;;;;;;;;;4900367;29;20233;-89
2022/01/02 03:40:46;;;;;;;5.90;2.50;;;;;;;;;;4900179;29;20233;-89
2022/01/02 03:43:15;;;;;;;5.33;2.70;;;;;;;;;;4900165;29;20251;-88
2022/01/02 03:45:44;;;;;;;3.63;2.67;;;;;;;;;;4900324;29;20217;-89
2022/01/02 03:48:12;;;;;;;5.57;2.53;;;;;;;;;;4900505;29;20237;-88
2022/01/02 03:50:41;;;;;;;4.43;2.47;;;;;;;;;;4900469;29;20236;-89
2022/01/02 03:53:10;;;;;;;5.73;2.77;;;;;;;;;;4900073;29;20240;-88
2022/01/02 03:55:41;;;;;;;3.80;1.90;;;;;;;;;;4900406;29;20235;-89
2022/01/02 03:58:09;;;;;;;6.60;2.87;;;;;;;;;;4900544;29;20229;-89
2022/01/02 04:00:39;;;;;;;4.40;2.70;;;;;;;;;;4900027;29;20237;-89
2022/01/02 04:03:08;;;;;;;7.83;3.33;;;;;;;;;;4900230;29;20225;-88
2022/01/02 04:05:36;;;;;;;5.20;3.13;;;;;;;;;;4899712;29;20200;-88
2022/01/02 04:08:05;;;;;;;5.30;3.13;;;;;;;;;;4899776;29;20257;-89
2022/01/02 04:10:33;;;;;;;4.57;2.00;;;;;;;;;;4900017;29;20295;-89
2022/01/02 04:13:02;;;;;;;7.00;3.07;;;;;;;;;;4900285;29;20262;-88
2022/01/02 04:15:30;;;;;;;4.23;2.30;;;;;;;;;;4899596;29;20272;-89
2022/01/02 04:18:00;;;;;;;5.40;3.23;;;;;;;;;;4899880;29;20213;-88
2022/01/02 04:20:28;;;;;;;4.73;2.27;;;;;;;;;;4899592;29;20209;-88
2022/01/02 04:22:57;;;;;;;6.50;2.60;;;;;;;;;;4899701;29;20233;-88
2022/01/02 04:25:25;;;;;;;7.27;2.43;;;;;;;;;;4899742;29;20239;-89
2022/01/02 04:27:54;;;;;;;6.73;3.53;;;;;;;;;;4899927;29;20303;-88
2022/01/02 04:30:22;;;;;;;8.13;3.97;;;;;;;;;;4899369;29;20286;-89
2022/01/02 04:32:52;;;;;;;7.27;4.13;;;;;;;;;;4899504;29;20210;-89
2022/01/02 04:35:22;;;;;;;5.17;2.93;;;;;;;;;;4899347;29;20242;-88
2022/01/02 04:37:53;;;;;;;9.27;2.93;;;;;;;;;;4899734;29;20217;-89
2022/01/02 04:40:21;;;;;;;5.73;2.23;;;;;;;;;;4899315;29;20226;-89
2022/01/02 04:42:50;;;;;;;2.60;1.97;;;;;;;;;;4898944;29;20236;-89
2022/01/02 04:45:18;;;;;;;3.60;2.37;;;;;;;;;;4899056;29;20208;-88
2022/01/02 04:47:47;;;;;;;6.27;2.00;;;;;;;;;;4899127;29;20212;-89
2022/01/02 04:50:15;;;;;;;2.47;2.27;;;;;;;;;;4899270;29;20208;-88
2022/01/02 04:52:45;;;;;;;5.87;3.03;;;;;;;;;;4899160;29;20204;-89
2022/01/02 04:55:13;;;;;;;6.60;3.33;;;;;;;;;;4899158;29;20265;-88
2022/01/02 04:57:42;;;;;;;4.93;2.27;;;;;;;;;;4898829;29;20237;-89
2022/01/02 05:00:11;;;;;;;10.00;4.40;;;;;;;;;;4899371;29;20243;-89
2022/01/02 05:02:39;;;;;;;11.17;4.90;;;;;;;;;;4898602;29;20327;-88
2022/01/02 05:05:08;;;;;;;6.97;4.13;;;;;;;;;;4899302;29;20216;-89
2022/01/02 05:07:36;;;;;;;8.27;3.83;;;;;;;;;;4898591;29;20297;-88
2022/01/02 05:10:07;;;;;;;9.57;4.40;;;;;;;;;;4899080;29;20208;-88
2022/01/02 05:12:35;;;;;;;8.93;3.23;;;;;;;;;;4899206;29;20196;-89
2022/01/02 05:15:05;;;;;;;7.20;3.57;;;;;;;;;;4898985;29;20216;-88
2022/01/02 05:17:33;;;;;;;6.27;3.17;;;;;;;;;;4898723;29;20264;-88
2022/01/02 05:20:02;;;;;;;8.37;3.67;;;;;;;;;;4899223;29;20271;-88
2022/01/02 05:22:30;;;;;;;4.33;3.63;;;;;;;;;;4898640;29;20224;-88
2022/01/02 05:24:59;;;;;;;9.17;3.90;;;;;;;;;;4898970;29;20212;-89
2022/01/02 05:27:28;;;;;;;7.10;3.10;;;;;;;;;;4899103;29;20276;-89
2022/01/02 05:29:57;;;;;;;5.70;3.20;;;;;;;;;;4898814;29;20307;-88
2022/01/02 05:32:25;;;;;;;8.50;2.37;;;;;;;;;;4898724;29;20282;-88
2022/01/02 05:34:54;;;;;;;5.43;3.40;;;;;;;;;;4898601;29;20215;-89
2022/01/02 05:37:22;;;;;;;5.30;4.20;;;;;;;;;;4898539;29;20215;-89
2022/01/02 05:39:50;;;;;;;4.00;1.57;;;;;;;;;;4899357;29;20272;-88
2022/01/02 05:42:19;;;;;;;6.67;2.83;;;;;;;;;;4898851;29;20260;-88
2022/01/02 05:44:49;;;;;;;6.47;2.93;;;;;;;;;;4898783;29;20201;-88
2022/01/02 05:47:17;;;;;;;4.27;2.90;;;;;;;;;;4898752;29;20215;-88
2022/01/02 05:49:45;;;;;;;6.50;4.17;;;;;;;;;;4898764;29;20279;-89
2022/01/02 05:52:14;;;;;;;5.50;4.03;;;;;;;;;;4898765;29;20250;-88
2022/01/02 05:54:42;;;;;;;6.90;3.93;;;;;;;;;;4898688;29;20268;-88
2022/01/02 05:57:11;;;;;;;7.27;4.57;;;;;;;;;;4902392;29;20212;-88
2022/01/02 05:59:40;;;;;;;4.37;2.00;;;;;;;;;;4902453;29;20212;-88
2022/01/02 06:02:10;;;;;;;8.80;4.60;;;;;;;;;;4902181;29;20228;-89
2022/01/02 06:04:38;;;;;;;9.13;4.17;;;;;;;;;;4901958;29;20235;-88
2022/01/02 06:07:08;;;;;;;6.10;2.97;;;;;;;;;;4901924;29;20307;-88
2022/01/02 06:09:36;;;;;;;5.50;3.83;;;;;;;;;;4901944;29;20238;-88
2022/01/02 06:12:05;;;;;;;6.80;4.47;;;;;;;;;;4902194;29;20234;-88
2022/01/02 06:14:33;;;;;;;7.50;3.90;;;;;;;;;;4901984;29;20298;-88
2022/01/02 06:17:02;;;;;;;6.80;2.73;;;;;;;;;;4901813;29;20272;-88
2022/01/02 06:19:32;;;;;;;7.60;3.07;;;;;;;;;;4901871;29;20214;-88
2022/01/02 06:22:00;;;;;;;3.47;2.77;;;;;;;;;;4901965;29;20224;-88
2022/01/02 06:24:32;;;;;;;8.20;4.87;;;;;;;;;;4901830;29;20255;-88
2022/01/02 06:27:00;;;;;;;5.13;2.77;;;;;;;;;;4901631;29;20231;-88
2022/01/02 06:29:28;;;;;;;6.17;4.00;;;;;;;;;;4901389;29;20235;-88
2022/01/02 06:32:00;;;;;;;4.67;3.67;;;;;;;;;;4902068;29;20212;-88
2022/01/02 06:34:29;;;;;;;7.47;3.83;;;;;;;;;;4901558;29;20231;-88
2022/01/02 06:36:58;;;;;;;6.20;3.73;;;;;;;;;;4901745;29;20215;-88
2022/01/02 06:39:27;;;;;;;6.13;3.90;;;;;;;;;;4901734;29;20267;-88
2022/01/02 06:42:01;;;;;;;7.10;3.93;;;;;;;;;;4901410;29;20210;-88
2022/01/02 06:44:29;;;;;;;4.30;2.70;;;;;;;;;;4901392;29;20215;-88
2022/01/02 06:46:58;;;;;;;9.33;4.40;;;;;;;;;;4901630;29;20200;-88
2022/01/02 06:49:26;;;;;;;6.97;3.70;;;;;;;;;;4901385;29;20208;-88
2022/01/02 06:51:55;;;;;;;11.10;5.40;;;;;;;;;;4884762;29;20219;-88
2022/01/02 06:54:25;;;;;;;6.93;4.07;;;;;;;;;;4900940;29;20211;-88
2022/01/02 06:56:53;;;;;;;7.23;3.97;;;;;;;;;;4901465;29;20212;-88
2022/01/02 06:59:22;;;;;;;5.40;4.40;;;;;;;;;;4900918;29;20279;-88
2022/01/02 07:01:51;;;;;;;6.73;4.50;;;;;;;;;;4901165;29;20239;-88
2022/01/02 07:04:19;;;;;;;4.30;3.90;;;;;;;;;;4900831;29;20268;-88
2022/01/02 07:06:48;;;;;;;5.97;4.07;;;;;;;;;;4900972;29;20215;-88
2022/01/02 07:09:22;;;;;;;4.77;3.50;;;;;;;;;;4901240;29;20280;-88
2022/01/02 07:11:51;;;;;;;6.23;3.37;;;;;;;;;;4901231;29;20235;-87
2022/01/02 07:14:23;;;;;;;6.00;4.10;;;;;;;;;;4901013;29;20244;-88
2022/01/02 07:16:51;;;;;;;7.13;4.07;;;;;;;;;;4900687;29;20224;-88
2022/01/02 07:19:20;;;;;;;4.70;3.10;;;;;;;;;;4901117;29;20232;-88
2022/01/02 07:21:48;;;;;;;5.13;2.43;;;;;;;;;;4900696;29;20215;-88
2022/01/02 07:24:16;;;;;;;2.63;2.33;;;;;;;;;;4900324;29;20281;-88
2022/01/02 07:26:45;;;;;;;5.03;3.00;;;;;;;;;;4900875;29;20243;-88
2022/01/02 07:29:15;;;;;;;8.00;3.90;;;;;;;;;;4900838;29;20256;-88
2022/01/02 07:31:44;;;;;;;5.47;2.90;;;;;;;;;;4900340;29;20211;-88
2022/01/02 07:34:12;;;;;;;5.83;3.20;;;;;;;;;;4900491;29;20204;-88
2022/01/02 07:36:44;;;;;;;4.27;3.60;;;;;;;;;;4900674;29;20208;-88
2022/01/02 07:39:13;;;;;;;7.40;4.47;;;;;;;;;;4900631;29;20232;-88
2022/01/02 07:41:42;;;;;;;4.07;2.97;;;;;;;;;;4900440;29;20243;-88
2022/01/02 07:44:10;;;;;;;5.87;3.80;;;;;;;;;;4900378;29;20224;-89
2022/01/02 07:46:40;;;;;;;5.70;2.93;;;;;;;;;;4900186;29;20239;-88
2022/01/02 07:49:09;;;;;;;3.47;3.07;;;;;;;;;;4900579;29;20208;-89
2022/01/02 07:51:37;;;;;;;8.03;4.37;;;;;;;;;;4900225;29;20317;-88
2022/01/02 07:54:05;;;;;;;5.00;3.03;;;;;;;;;;4900360;29;20239;-88
2022/01/02 07:56:34;;;;;;;4.37;2.83;;;;;;;;;;4900186;29;20231;-88
2022/01/02 07:59:02;;;;;;;5.63;4.50;;;;;;;;;;4900254;29;20256;-88
2022/01/02 08:01:31;;;;;;;6.13;3.73;;;;;;;;;;4900613;29;20215;-88
2022/01/02 08:04:02;;;;;;;4.27;3.50;;;;;;;;;;4899877;29;20239;-88
2022/01/02 08:06:33;;;;;;;2.83;2.27;;;;;;;;;;4899951;29;20298;-88
2022/01/02 08:09:01;;;;;;;7.27;3.20;;;;;;;;;;4899397;29;20288;-88
2022/01/02 08:11:30;;;;;;;9.83;5.93;;;;;;;;;;4899755;29;20262;-88
2022/01/02 08:14:16;;;;;;;4.23;3.57;;;;;;;;;;4899941;29;20211;-88
2022/01/02 08:16:45;;;;;;;8.43;5.40;;;;;;;;;;4899607;29;20239;-88
2022/01/02 08:19:15;;;;;;;5.33;3.73;;;;;;;;;;4899553;29;20218;-88
2022/01/02 08:21:44;;;;;;;9.20;5.57;;;;;;;;;;4899691;29;20246;-88
2022/01/02 08:24:12;;;;;;;10.77;6.00;;;;;;;;;;4899503;29;20258;-88
2022/01/02 08:26:41;;;;;;;6.73;4.93;;;;;;;;;;4899521;29;20203;-88
2022/01/02 08:29:09;;;;;;;7.70;4.57;;;;;;;;;;4899043;29;20254;-88
2022/01/02 08:31:37;;;;;;;4.30;2.87;;;;;;;;;;4899649;29;20207;-88
2022/01/02 08:34:06;;;;;;;7.90;3.27;;;;;;;;;;4899662;29;20256;-88
2022/01/02 08:36:36;;;;;;;6.03;4.13;;;;;;;;;;4899385;29;20235;-88
2022/01/02 08:39:06;;;;;;;14.63;4.43;;;;;;;;;;4899462;29;20260;-88
2022/01/02 08:41:34;;;;;;;11.53;5.70;;;;;;;;;;4899643;29;20199;-88
2022/01/02 08:44:05;;;;;;;10.17;3.60;;;;;;;;;;4899321;29;20247;-88
2022/01/02 08:46:33;;;;;;;5.07;3.50;;;;;;;;;;4899356;29;20200;-88
2022/01/02 08:49:02;;;;;;;11.13;2.80;;;;;;;;;;4891894;29;20233;-88
2022/01/02 08:51:30;;;;;;;7.53;4.90;;;;;;;;;;4898980;29;20236;-88
2022/01/02 08:54:01;;;;;;;9.80;4.23;;;;;;;;;;4899060;29;20212;-88
2022/01/02 08:56:29;;;;;;;14.10;5.17;;;;;;;;;;4899385;29;20216;-88
2022/01/02 08:58:58;;;;;;;11.80;4.07;;;;;;;;;;4898993;29;20208;-88
2022/01/02 09:01:26;;;;;;;8.97;4.13;;;;;;;;;;4899033;29;20212;-88
2022/01/02 09:03:54;;;;;;;5.10;3.83;;;;;;;;;;4898962;29;20232;-88
2022/01/02 09:06:23;;;;;;;8.97;5.17;;;;;;;;;;4898858;29;20229;-88
2022/01/02 09:08:52;;;;;;;5.73;3.20;;;;;;;;;;4898587;29;20247;-88
2022/01/02 09:11:21;;;;;;;8.63;4.77;;;;;;;;;;4899336;29;20249;-88
2022/01/02 09:13:50;;;;;;;9.53;4.50;;;;;;;;;;4899145;29;20235;-87
2022/01/02 09:16:18;;;;;;;12.10;3.80;;;;;;;;;;4898648;29;20243;-87
2022/01/02 09:18:47;;;;;;;16.13;4.67;;;;;;;;;;4899079;29;20249;-88
2022/01/02 09:21:15;;;;;;;4.77;3.37;;;;;;;;;;4898972;29;20267;-88
2022/01/02 09:23:44;;;;;;;10.43;4.80;;;;;;;;;;4898620;29;20291;-88
2022/01/02 09:26:12;;;;;;;10.20;6.40;;;;;;;;;;4898629;29;20238;-88
2022/01/02 09:28:42;;;;;;;12.13;5.43;;;;;;;;;;4898884;29;20226;-88
2022/01/02 09:31:10;;;;;;;19.23;5.83;;;;;;;;;;4901590;29;20211;-88
2022/01/02 09:33:39;;;;;;;9.77;4.67;;;;;;;;;;4902696;29;20203;-88
2022/01/02 09:36:07;;;;;;;7.57;4.87;;;;;;;;;;4902544;29;20268;-88
2022/01/02 09:38:36;;;;;;;6.30;5.53;;;;;;;;;;4902627;29;20211;-88
2022/01/02 09:41:06;;;;;;;7.03;4.23;;;;;;;;;;4902824;29;20204;-88
2022/01/02 09:43:34;;;;;;;10.97;4.57;;;;;;;;;;4902213;29;20291;-88
2022/01/02 09:46:05;;;;;;;9.77;5.70;;;;;;;;;;4902378;29;20203;-88
2022/01/02 09:48:33;;;;;;;7.03;3.97;;;;;;;;;;4902658;29;20283;-88
2022/01/02 09:51:02;;;;;;;5.00;3.90;;;;;;;;;;4902514;29;20215;-88
2022/01/02 09:53:30;;;;;;;8.40;5.03;;;;;;;;;;4902142;29;20215;-88
2022/01/02 09:55:59;;;;;;;22.97;5.77;;;;;;;;;;4902387;29;20231;-88
2022/01/02 09:58:28;;;;;;;11.00;5.17;;;;;;;;;;4902148;29;20236;-88
2022/01/02 10:00:56;;;;;;;12.57;7.20;;;;;;;;;;4902642;29;20299;-88
2022/01/02 10:03:26;;;;;;;12.20;4.50;;;;;;;;;;4902146;29;20255;-88
2022/01/02 10:05:55;;;;;;;12.93;5.33;;;;;;;;;;4901821;29;20295;-88
2022/01/02 10:08:25;;;;;;;12.40;5.50;;;;;;;;;;4901828;29;20300;-88
2022/01/02 10:11:01;;;;;;;10.13;5.70;;;;;;;;;;4902041;29;20204;-87
2022/01/02 10:13:43;;;;;;;11.73;6.37;;;;;;;;;;4902020;29;20207;-88
2022/01/02 10:16:22;;;;;;;11.63;5.03;;;;;;;;;;4902009;29;20204;-88
2022/01/02 10:18:53;;;;;;;15.60;4.57;;;;;;;;;;4901992;29;20275;-88
2022/01/02 10:21:28;;;;;;;17.60;6.60;;;;;;;;;;4901849;29;20199;-88
2022/01/02 10:24:16;;;;;;;11.53;5.97;;;;;;;;;;4901541;29;20204;-88
2022/01/02 10:26:59;;;;;;;12.97;5.60;;;;;;;;;;4901728;29;20252;-88
2022/01/02 10:29:39;;;;;;;6.70;4.40;;;;;;;;;;4901708;29;20212;-88
2022/01/02 10:32:22;;;;;;;9.87;5.70;;;;;;;;;;4901720;29;20212;-88
2022/01/02 10:34:53;;;;;;;12.83;6.67;;;;;;;;;;4901854;29;20204;-88
2022/01/02 10:37:24;;;;;;;11.50;5.13;;;;;;;;;;4901245;29;20212;-88
2022/01/02 10:39:53;;;;;;;15.63;5.60;;;;;;;;;;4901895;29;20240;-88
2022/01/02 10:42:22;;;;;;;13.90;6.43;;;;;;;;;;4901092;29;20287;-88
2022/01/02 10:44:50;;;;;;;13.83;5.03;;;;;;;;;;4901493;29;20235;-88
2022/01/02 10:47:21;;;;;;;16.70;5.93;;;;;;;;;;4901411;29;20240;-88
2022/01/02 10:49:55;;;;;;;14.23;5.80;;;;;;;;;;4901420;29;20263;-87
2022/01/02 10:52:24;;;;;;;9.10;4.20;;;;;;;;;;4911798;29;20210;-88
2022/01/02 10:54:53;;;;;;;22.73;5.87;;;;;;;;;;4920290;29;20211;-88
2022/01/02 10:57:21;;;;;;;15.53;6.13;;;;;;;;;;4919929;29;20250;-88
2022/01/02 10:59:50;;;;;;;8.50;4.00;;;;;;;;;;4920048;29;20287;-88
2022/01/02 11:02:18;;;;;;;14.97;5.53;;;;;;;;;;4919702;29;20211;-88
2022/01/02 11:04:48;;;;;;;20.07;7.20;;;;;;;;;;4920072;29;20282;-88
2022/01/02 11:07:22;;;;;;;17.70;5.07;;;;;;;;;;4919724;29;20273;-88
2022/01/02 11:09:53;;;;;;;14.43;4.20;;;;;;;;;;4920041;29;20210;-88
2022/01/02 11:12:27;;;;;;;11.80;4.33;;;;;;;;;;4919553;29;20206;-88
2022/01/02 11:14:56;;;;;;;17.07;5.37;;;;;;;;;;4919689;29;20232;-88
2022/01/02 11:17:24;;;;;;;10.43;5.03;;;;;;;;;;4919833;29;20203;-88
2022/01/02 11:19:52;;;;;;;18.00;5.93;;;;;;;;;;4919698;29;20293;-88
2022/01/02 11:22:25;;;;;;;14.47;4.27;;;;;;;;;;4919772;29;20208;-88
2022/01/02 11:25:00;;;;;;;13.17;5.53;;;;;;;;;;4919416;29;20295;-88
2022/01/02 11:27:35;;;;;;;17.77;5.13;;;;;;;;;;4919384;29;20217;-88
2022/01/02 11:30:18;;;;;;;16.10;4.87;;;;;;;;;;4919585;29;20252;-88
2022/01/02 11:33:00;;;;;;;10.47;4.80;;;;;;;;;;4919254;29;20266;-88
2022/01/02 11:35:31;;;;;;;10.73;5.07;;;;;;;;;;4919489;29;20223;-88
2022/01/02 11:38:02;;;;;;;21.50;6.90;;;;;;;;;;4919285;29;20207;-88
2022/01/02 11:40:58;;;;;;;21.57;5.00;;;;;;;;;;4919193;29;20211;-88
2022/01/02 11:43:48;;;;;;;10.57;4.27;;;;;;;;;;4919573;29;20267;-88
2022/01/02 11:46:18;;;;;;;24.13;6.40;;;;;;;;;;4918938;29;20254;-89
2022/01/02 11:49:01;;;;;;;17.73;7.17;;;;;;;;;;4918982;29;20218;-88
2022/01/02 11:51:45;;;;;;;16.63;6.20;;;;;;;;;;4918779;29;20238;-88
2022/01/02 11:54:40;;;;;;;14.70;6.60;;;;;;;;;;4917653;29;20226;-88
2022/01/02 11:57:25;;;;;;;9.33;4.87;;;;;;;;;;4919232;29;20215;-88
2022/01/02 11:59:56;;;;;;;25.33;8.53;;;;;;;;;;4918861;29;20207;-88
2022/01/02 12:02:35;;;;;;;22.57;8.80;;;;;;;;;;4918771;29;20266;-88
2022/01/02 12:05:12;;;;;;;19.10;4.57;;;;;;;;;;4918800;29;20214;-87
2022/01/02 12:07:54;;;;;;;15.47;5.00;;;;;;;;;;4918553;29;20247;-88
2022/01/02 12:10:26;;;;;;;24.83;6.47;;;;;;;;;;4918688;29;20207;-88
2022/01/02 12:13:20;;;;;;;19.20;5.87;;;;;;;;;;4918964;29;20210;-89
2022/01/02 12:16:08;;;;;;;9.93;4.30;;;;;;;;;;4918689;29;20231;-89
2022/01/02 12:18:56;;;;;;;5.40;3.33;;;;;;;;;;4918306;29;20210;-89
2022/01/02 12:21:25;;;;;;;19.17;6.17;;;;;;;;;;4918751;29;20199;-89
2022/01/02 12:23:54;;;;;;;5.23;2.50;;;;;;;;;;4918666;29;20211;-89
2022/01/02 12:26:28;;;;;;;7.00;3.40;;;;;;;;;;4918182;29;20234;-88
2022/01/02 12:28:58;;;;;;;17.53;6.03;;;;;;;;;;4918545;29;20267;-89
2022/01/02 12:31:28;;;;;;;14.60;3.73;;;;;;;;;;4918612;29;20207;-89
2022/01/02 12:34:03;;;;;;;9.67;3.43;;;;;;;;;;4918743;29;20211;-89
2022/01/02 12:36:31;;;;;;;26.13;5.63;;;;;;;;;;4918636;29;20191;-89
2022/01/02 12:39:00;;;;;;;8.00;3.23;;;;;;;;;;4918087;29;20227;-88
2022/01/02 12:41:31;;;;;;;13.87;4.37;;;;;;;;;;4918291;29;20266;-88
2022/01/02 12:44:00;;;;;;;13.77;4.90;;;;;;;;;;4918470;29;20196;-88
2022/01/02 12:46:38;;;;;;;10.13;4.00;;;;;;;;;;4918171;29;20235;-88
2022/01/02 12:49:07;;;;;;;7.67;3.47;;;;;;;;;;4917937;29;20202;-89
2022/01/02 12:51:38;;;;;;;14.93;4.00;;;;;;;;;;4914269;29;20271;-89
2022/01/02 12:54:07;;;;;;;7.00;2.17;;;;;;;;;;4899224;29;20211;-88
2022/01/02 12:56:38;;;;;;;19.80;4.53;;;;;;;;;;4899202;29;20231;-88
2022/01/02 12:59:23;;;;;;;12.37;4.07;;;;;;;;;;4899576;29;20267;-90
2022/01/02 13:01:55;;;;;;;15.17;4.93;;;;;;;;;;4899334;29;20211;-89
2022/01/02 13:04:25;;;;;;;7.50;3.53;;;;;;;;;;4899096;29;20231;-89
2022/01/02 13:06:54;;;;;;;7.03;3.07;;;;;;;;;;4898928;29;20240;-89
2022/01/02 13:09:23;;;;;;;14.47;4.50;;;;;;;;;;4898869;29;20303;-88
2022/01/02 13:11:53;;;;;;;8.00;2.80;;;;;;;;;;4899006;29;20199;-88
2022/01/02 13:14:32;;;;;;;13.20;2.93;;;;;;;;;;4899151;29;20256;-88
2022/01/02 13:17:01;;;;;;;4.83;2.93;;;;;;;;;;4899255;29;20226;-88
2022/01/02 13:19:30;;;;;;;6.37;2.23;;;;;;;;;;4898653;29;20231;-89
2022/01/02 13:22:00;;;;;;;9.07;2.27;;;;;;;;;;4899183;29;20316;-89
2022/01/02 13:24:29;;;;;;;12.67;2.57;;;;;;;;;;4898895;29;20259;-89
2022/01/02 13:27:00;;;;;;;13.07;3.87;;;;;;;;;;4898858;29;20235;-89
2022/01/02 13:29:28;;;;;;;13.03;2.80;;;;;;;;;;4899259;29;20235;-89
2022/01/02 13:31:58;;;;;;;3.40;2.37;;;;;;;;;;4899182;29;20242;-89
2022/01/02 13:34:27;;;;;;;15.37;4.40;;;;;;;;;;4898927;29;20265;-89
2022/01/02 13:36:57;;;;;;;17.40;4.90;;;;;;;;;;4898916;29;20263;-89
2022/01/02 13:39:45;;;;;;;8.10;2.40;;;;;;;;;;4898849;29;20215;-88
2022/01/02 13:42:15;;;;;;;14.27;3.20;;;;;;;;;;4898762;29;20295;-89
2022/01/02 13:44:44;;;;;;;2.03;1.70;;;;;;;;;;4899095;29;20203;-89
2022/01/02 13:47:13;;;;;;;11.17;2.63;;;;;;;;;;4898679;29;20223;-89
2022/01/02 13:49:47;;;;;;;8.63;3.10;;;;;;;;;;4898780;29;20212;-88
2022/01/02 13:52:16;;;;;;;8.03;2.63;;;;;;;;;;4898333;29;20219;-88
2022/01/02 13:54:45;;;;;;;5.40;1.83;;;;;;;;;;4898966;29;20239;-89
2022/01/02 13:57:15;;;;;;;12.00;3.50;;;;;;;;;;4898792;29;20218;-89
2022/01/02 13:59:44;;;;;;;13.00;3.80;;;;;;;;;;4898838;29;20200;-88
2022/01/02 14:02:13;;;;;;;10.03;3.13;;;;;;;;;;4898629;29;20243;-89
2022/01/02 14:04:55;;;;;;;2.57;1.60;;;;;;;;;;4898853;29;20251;-89
2022/01/02 14:07:27;;;;;;;6.10;1.93;;;;;;;;;;4898583;29;20287;-89
2022/01/02 14:09:56;;;;;;;8.00;3.17;;;;;;;;;;4898698;29;20326;-89
2022/01/02 14:12:33;;;;;;;7.87;3.87;;;;;;;;;;4898821;29;20298;-89
2022/01/02 14:15:27;;;;;;;4.77;4.00;;;;;;;;;;4898716;29;20279;-89
2022/01/02 14:17:55;;;;;;;18.10;4.03;;;;;;;;;;4902084;29;20212;-89
2022/01/02 14:20:27;;;;;;;16.17;4.93;;;;;;;;;;4902267;29;20240;-89
2022/01/02 14:22:55;;;;;;;10.57;4.23;;;;;;;;;;4902087;29;20231;-89
2022/01/02 14:25:24;;;;;;;6.83;3.67;;;;;;;;;;4902149;29;20238;-88
2022/01/02 14:27:54;;;;;;;6.20;5.63;;;;;;;;;;4902093;29;20223;-87
2022/01/02 14:30:23;;;;;;;8.93;4.60;;;;;;;;;;4901734;29;20267;-89
2022/01/02 14:32:53;;;;;;;11.50;2.87;;;;;;;;;;4901922;29;20204;-89
2022/01/02 14:35:21;;;;;;;12.27;3.33;;;;;;;;;;4902183;29;20204;-89
2022/01/02 14:37:50;;;;;;;12.23;2.87;;;;;;;;;;4901922;29;20236;-89
2022/01/02 14:40:21;;;;;;;4.50;2.20;;;;;;;;;;4901484;29;20208;-89
2022/01/02 14:42:50;;;;;;;8.63;1.97;;;;;;;;;;4901783;29;20207;-89
2022/01/02 14:45:20;;;;;;;3.23;1.67;;;;;;;;;;4901422;29;20244;-89
2022/01/02 14:47:49;;;;;;;6.53;2.30;;;;;;;;;;4901316;29;20239;-89
2022/01/02 14:50:19;;;;;;;6.83;3.00;;;;;;;;;;4901589;29;20238;-87
2022/01/02 14:52:48;;;;;;;5.40;2.90;;;;;;;;;;4901677;29;20219;-88
2022/01/02 14:55:17;;;;;;;7.07;2.30;;;;;;;;;;4901486;29;20220;-88
2022/01/02 14:57:47;;;;;;;3.80;1.90;;;;;;;;;;4901458;29;20212;-88
2022/01/02 15:00:16;;;;;;;5.97;1.50;;;;;;;;;;4901532;29;20267;-88
2022/01/02 15:02:46;;;;;;;3.67;1.53;;;;;;;;;;4901436;29;20226;-88